createdAt,value
2018-11-13T00:00:51.369Z,1009.16
2018-11-13T00:01:51.517Z,1009.13
2018-11-13T00:02:51.674Z,1009.15
2018-11-13T00:03:51.729Z,1009.18
2018-11-13T00:04:51.889Z,1009.35
2018-11-13T00:06:52.033Z,1009.36
2018-11-13T00:07:52.169Z,1009.38
2018-11-13T00:08:52.320Z,1009.38
2018-11-13T00:09:52.407Z,1009.38
2018-11-13T00:10:52.485Z,1009.39
2018-11-13T00:11:52.653Z,1009.39
2018-11-13T00:12:52.720Z,1009.37
2018-11-13T00:13:52.758Z,1009.32
2018-11-13T00:14:52.863Z,1009.34
2018-11-13T00:15:52.950Z,1009.36
2018-11-13T00:16:53.055Z,1009.33
2018-11-13T00:17:53.126Z,1009.35
2018-11-13T00:18:53.434Z,1009.30
2018-11-13T00:19:53.598Z,1009.30
2018-11-13T00:20:53.676Z,1009.34
2018-11-13T00:21:53.843Z,1009.40
2018-11-13T00:22:53.941Z,1009.43
2018-11-13T00:23:54.200Z,1009.46
2018-11-13T00:24:54.198Z,1009.70
2018-11-13T00:25:54.269Z,1009.69
2018-11-13T00:26:54.269Z,1009.55
2018-11-13T00:27:54.544Z,1009.54
2018-11-13T00:28:55.056Z,1009.52
2018-11-13T00:29:54.824Z,1009.51
2018-11-13T00:30:55.137Z,1009.47
2018-11-13T00:31:55.419Z,1009.40
2018-11-13T00:32:55.722Z,1009.39
2018-11-13T00:33:56.146Z,1009.40
2018-11-13T00:34:56.392Z,1009.46
2018-11-13T00:35:56.692Z,1009.42
2018-11-13T00:36:57.087Z,1009.41
2018-11-13T00:37:57.380Z,1009.41
2018-11-13T00:38:57.654Z,1009.39
2018-11-13T00:39:57.947Z,1009.34
2018-11-13T00:40:58.264Z,1009.36
2018-11-13T00:41:58.553Z,1009.40
2018-11-13T00:42:58.831Z,1009.37
2018-11-13T00:43:59.104Z,1009.40
2018-11-13T00:44:59.368Z,1009.43
2018-11-13T00:45:59.764Z,1009.36
2018-11-13T00:46:59.898Z,1009.32
2018-11-13T00:48:00.167Z,1009.35
2018-11-13T00:49:00.675Z,1009.22
2018-11-13T00:50:00.784Z,1009.29
2018-11-13T00:51:01.423Z,1009.29
2018-11-13T00:52:01.631Z,1009.41
2018-11-13T00:53:01.686Z,1009.41
2018-11-13T00:54:01.788Z,1009.41
2018-11-13T00:55:02.672Z,1009.50
2018-11-13T00:56:02.366Z,1009.55
2018-11-13T00:57:02.632Z,1009.62
2018-11-13T00:58:02.698Z,1009.58
2018-11-13T00:59:02.516Z,1009.65
2018-11-13T01:00:03.140Z,1009.67
2018-11-13T01:01:03.355Z,1009.77
2018-11-13T01:02:03.693Z,1009.71
2018-11-13T01:03:03.741Z,1009.79
2018-11-13T01:04:03.863Z,1009.80
2018-11-13T01:05:04.082Z,1009.77
2018-11-13T01:06:04.462Z,1009.88
2018-11-13T01:08:04.650Z,1009.92
2018-11-13T01:09:04.771Z,1009.97
2018-11-13T01:10:05.072Z,1009.96
2018-11-13T01:11:05.440Z,1010.03
2018-11-13T01:12:05.611Z,1010.04
2018-11-13T01:13:05.776Z,1010.04
2018-11-13T01:14:05.887Z,1010.05
2018-11-13T01:15:06.072Z,1010.04
2018-11-13T01:16:06.491Z,1010.06
2018-11-13T01:17:06.645Z,1010.07
2018-11-13T01:18:06.744Z,1010.01
2018-11-13T01:19:06.855Z,1010.02
2018-11-13T01:20:06.996Z,1010.08
2018-11-13T01:21:07.142Z,1010.03
2018-11-13T01:22:07.214Z,1010.00
2018-11-13T01:23:07.602Z,1010.04
2018-11-13T01:24:08.009Z,1010.06
2018-11-13T01:25:08.565Z,1010.13
2018-11-13T01:26:08.649Z,1010.13
2018-11-13T01:27:08.704Z,1010.18
2018-11-13T01:28:08.491Z,1010.20
2018-11-13T01:29:09.138Z,1010.23
2018-11-13T01:30:09.267Z,1010.24
2018-11-13T01:31:09.577Z,1010.25
2018-11-13T01:32:09.324Z,1010.33
2018-11-13T01:33:09.784Z,1010.26
2018-11-13T01:34:10.203Z,1010.23
2018-11-13T01:35:10.449Z,1010.21
2018-11-13T01:36:10.792Z,1010.20
2018-11-13T01:37:11.115Z,1010.17
2018-11-13T01:38:11.725Z,1010.17
2018-11-13T01:39:11.517Z,1010.12
2018-11-13T01:40:11.803Z,1010.11
2018-11-13T01:41:12.158Z,1010.15
2018-11-13T01:42:11.980Z,1010.15
2018-11-13T01:43:12.484Z,1010.16
2018-11-13T01:44:12.977Z,1010.08
2018-11-13T01:45:13.372Z,1010.11
2018-11-13T01:46:13.721Z,1010.15
2018-11-13T01:47:14.004Z,1010.05
2018-11-13T01:48:14.342Z,1010.10
2018-11-13T01:49:14.616Z,1010.07
2018-11-13T01:50:15.213Z,1010.12
2018-11-13T01:51:15.403Z,1010.09
2018-11-13T01:52:15.708Z,1010.13
2018-11-13T01:53:15.990Z,1010.17
2018-11-13T01:54:16.352Z,1010.22
2018-11-13T01:55:16.678Z,1010.24
2018-11-13T01:56:17.036Z,1010.19
2018-11-13T01:57:17.313Z,1010.19
2018-11-13T01:58:17.606Z,1010.21
2018-11-13T01:59:17.923Z,1010.05
2018-11-13T02:00:18.678Z,1010.01
2018-11-13T02:01:18.941Z,1009.98
2018-11-13T02:02:19.057Z,1009.95
2018-11-13T02:03:19.221Z,1009.98
2018-11-13T02:04:19.380Z,1009.97
2018-11-13T02:06:19.526Z,1009.93
2018-11-13T02:07:19.694Z,1009.88
2018-11-13T02:08:19.850Z,1009.93
2018-11-13T02:09:19.989Z,1009.90
2018-11-13T02:10:20.165Z,1009.90
2018-11-13T02:11:20.469Z,1009.95
2018-11-13T02:12:20.598Z,1010.02
2018-11-13T02:13:20.754Z,1009.96
2018-11-13T02:14:20.875Z,1009.91
2018-11-13T02:15:20.951Z,1009.92
2018-11-13T02:16:21.105Z,1009.85
2018-11-13T02:17:21.208Z,1009.95
2018-11-13T02:18:21.419Z,1010.00
2018-11-13T02:19:21.510Z,1010.01
2018-11-13T02:20:21.672Z,1009.99
2018-11-13T02:21:21.909Z,1010.05
2018-11-13T02:22:22.044Z,1010.07
2018-11-13T02:23:22.182Z,1010.09
2018-11-13T02:24:22.315Z,1010.18
2018-11-13T02:25:22.415Z,1010.20
2018-11-13T02:26:22.488Z,1010.27
2018-11-13T02:27:22.572Z,1010.32
2018-11-13T02:28:22.655Z,1010.30
2018-11-13T02:29:22.741Z,1010.31
2018-11-13T02:30:22.824Z,1010.38
2018-11-13T02:31:22.903Z,1010.33
2018-11-13T02:32:22.994Z,1010.31
2018-11-13T02:33:23.082Z,1010.34
2018-11-13T02:34:23.180Z,1010.42
2018-11-13T02:35:23.294Z,1010.34
2018-11-13T02:36:23.389Z,1010.32
2018-11-13T02:37:23.498Z,1010.28
2018-11-13T02:38:23.629Z,1010.33
2018-11-13T02:39:23.734Z,1010.37
2018-11-13T02:40:23.812Z,1010.38
2018-11-13T02:41:23.892Z,1010.44
2018-11-13T02:42:23.978Z,1010.51
2018-11-13T02:43:24.006Z,1010.52
2018-11-13T02:44:23.956Z,1010.62
2018-11-13T02:45:24.220Z,1010.62
2018-11-13T02:46:24.545Z,1010.61
2018-11-13T02:47:24.844Z,1010.50
2018-11-13T02:48:25.170Z,1010.53
2018-11-13T02:49:25.494Z,1010.54
2018-11-13T02:50:25.800Z,1010.54
2018-11-13T02:51:26.332Z,1010.44
2018-11-13T02:52:26.232Z,1010.47
2018-11-13T02:53:26.567Z,1010.44
2018-11-13T02:54:26.850Z,1010.44
2018-11-13T02:55:27.343Z,1010.35
2018-11-13T02:56:27.626Z,1010.43
2018-11-13T02:57:27.933Z,1010.44
2018-11-13T02:58:28.238Z,1010.43
2018-11-13T02:59:28.525Z,1010.44
2018-11-13T03:00:28.814Z,1010.63
2018-11-13T03:01:29.097Z,1010.71
2018-11-13T03:02:29.467Z,1010.70
2018-11-13T03:03:29.820Z,1010.79
2018-11-13T03:04:30.131Z,1010.82
2018-11-13T03:05:30.454Z,1010.88
2018-11-13T03:06:30.742Z,1010.79
2018-11-13T03:07:31.098Z,1010.77
2018-11-13T03:08:31.387Z,1010.73
2018-11-13T03:09:31.690Z,1010.66
2018-11-13T03:10:32.181Z,1010.62
2018-11-13T03:11:32.458Z,1010.67
2018-11-13T03:12:32.749Z,1010.71
2018-11-13T03:13:33.267Z,1010.73
2018-11-13T03:14:33.875Z,1010.81
2018-11-13T03:15:34.079Z,1010.88
2018-11-13T03:16:34.190Z,1010.95
2018-11-13T03:17:34.358Z,1010.98
2018-11-13T03:18:34.608Z,1011.06
2018-11-13T03:19:34.736Z,1011.00
2018-11-13T03:20:34.956Z,1010.92
2018-11-13T03:21:35.087Z,1010.90
2018-11-13T03:22:35.218Z,1010.86
2018-11-13T03:23:35.389Z,1010.77
2018-11-13T03:24:35.556Z,1010.75
2018-11-13T03:25:35.674Z,1010.77
2018-11-13T03:26:35.810Z,1010.81
2018-11-13T03:27:35.955Z,1010.88
2018-11-13T03:28:36.096Z,1010.88
2018-11-13T03:29:36.167Z,1010.99
2018-11-13T03:30:36.291Z,1011.04
2018-11-13T03:31:36.491Z,1011.00
2018-11-13T03:32:36.444Z,1011.02
2018-11-13T03:33:36.569Z,1011.09
2018-11-13T03:34:36.364Z,1011.03
2018-11-13T03:35:36.979Z,1011.02
2018-11-13T03:36:37.088Z,1010.93
2018-11-13T03:37:37.278Z,1010.94
2018-11-13T03:38:37.369Z,1010.84
2018-11-13T03:39:37.464Z,1010.93
2018-11-13T03:40:37.552Z,1010.85
2018-11-13T03:41:37.635Z,1010.89
2018-11-13T03:42:37.845Z,1010.83
2018-11-13T03:43:37.960Z,1010.83
2018-11-13T03:44:38.032Z,1010.76
2018-11-13T03:45:38.109Z,1010.77
2018-11-13T03:46:38.197Z,1010.71
2018-11-13T03:47:38.283Z,1010.74
2018-11-13T03:48:38.451Z,1010.73
2018-11-13T03:49:38.688Z,1010.69
2018-11-13T03:50:38.886Z,1010.68
2018-11-13T03:51:38.905Z,1010.71
2018-11-13T03:52:38.966Z,1010.65
2018-11-13T03:53:39.148Z,1010.76
2018-11-13T03:54:39.661Z,1010.77
2018-11-13T03:55:39.533Z,1010.86
2018-11-13T03:56:39.856Z,1010.95
2018-11-13T03:57:40.334Z,1010.94
2018-11-13T03:58:40.392Z,1010.98
2018-11-13T03:59:40.517Z,1011.09
2018-11-13T04:00:40.737Z,1011.09
2018-11-13T04:01:41.028Z,1011.00
2018-11-13T04:02:41.299Z,1011.10
2018-11-13T04:03:41.621Z,1011.10
2018-11-13T04:04:41.900Z,1011.08
2018-11-13T04:05:42.274Z,1011.06
2018-11-13T04:06:42.582Z,1011.00
2018-11-13T04:07:43.058Z,1011.02
2018-11-13T04:08:43.095Z,1011.10
2018-11-13T04:09:43.687Z,1011.08
2018-11-13T04:10:43.530Z,1011.15
2018-11-13T04:11:43.886Z,1011.11
2018-11-13T04:12:44.184Z,1011.07
2018-11-13T04:13:44.655Z,1011.17
2018-11-13T04:14:44.961Z,1011.12
2018-11-13T04:16:45.261Z,1011.14
2018-11-13T04:17:45.566Z,1011.24
2018-11-13T04:18:45.881Z,1011.24
2018-11-13T04:19:46.277Z,1011.28
2018-11-13T04:20:46.642Z,1011.26
2018-11-13T04:21:47.004Z,1011.32
2018-11-13T04:22:47.280Z,1011.22
2018-11-13T04:23:47.318Z,1011.30
2018-11-13T04:24:47.625Z,1011.26
2018-11-13T04:25:48.020Z,1011.27
2018-11-13T04:26:48.673Z,1011.27
2018-11-13T04:27:48.835Z,1011.37
2018-11-13T04:28:48.996Z,1011.32
2018-11-13T04:29:49.156Z,1011.26
2018-11-13T04:30:49.467Z,1011.23
2018-11-13T04:31:49.521Z,1011.25
2018-11-13T04:32:49.675Z,1011.24
2018-11-13T04:33:49.853Z,1011.15
2018-11-13T04:34:50.041Z,1011.24
2018-11-13T04:35:50.240Z,1011.19
2018-11-13T04:36:50.444Z,1011.21
2018-11-13T04:37:50.686Z,1011.22
2018-11-13T04:38:50.883Z,1011.25
2018-11-13T04:39:51.124Z,1011.27
2018-11-13T04:40:51.227Z,1011.29
2018-11-13T04:41:51.293Z,1011.31
2018-11-13T04:42:51.379Z,1011.28
2018-11-13T04:43:51.548Z,1011.36
2018-11-13T04:45:51.736Z,1011.41
2018-11-13T04:46:51.836Z,1011.44
2018-11-13T04:47:51.972Z,1011.40
2018-11-13T04:48:52.099Z,1011.46
2018-11-13T04:49:52.201Z,1011.47
2018-11-13T04:50:52.344Z,1011.47
2018-11-13T04:51:52.480Z,1011.42
2018-11-13T04:52:52.563Z,1011.32
2018-11-13T04:53:52.694Z,1011.39
2018-11-13T04:54:52.803Z,1011.42
2018-11-13T04:55:52.913Z,1011.38
2018-11-13T04:56:52.996Z,1011.32
2018-11-13T04:57:53.077Z,1011.39
2018-11-13T04:58:53.189Z,1011.33
2018-11-13T04:59:53.296Z,1011.31
2018-11-13T05:00:53.386Z,1011.31
2018-11-13T05:01:56.537Z,1011.31
2018-11-13T05:02:53.740Z,1011.27
2018-11-13T05:03:53.709Z,1011.26
2018-11-13T05:04:53.789Z,1011.37
2018-11-13T05:05:53.976Z,1011.33
2018-11-13T05:06:54.077Z,1011.28
2018-11-13T05:07:54.119Z,1011.32
2018-11-13T05:08:54.171Z,1011.25
2018-11-13T05:09:54.707Z,1011.30
2018-11-13T05:10:54.934Z,1011.30
2018-11-13T05:11:55.224Z,1011.40
2018-11-13T05:12:55.517Z,1011.44
2018-11-13T05:13:55.877Z,1011.50
2018-11-13T05:14:56.183Z,1011.57
2018-11-13T05:15:56.500Z,1011.58
2018-11-13T05:16:56.785Z,1011.63
2018-11-13T05:17:57.073Z,1011.61
2018-11-13T05:18:57.360Z,1011.63
2018-11-13T05:19:57.659Z,1011.68
2018-11-13T05:20:57.947Z,1011.67
2018-11-13T05:21:58.251Z,1011.64
2018-11-13T05:22:58.726Z,1011.66
2018-11-13T05:23:59.107Z,1011.62
2018-11-13T05:24:59.534Z,1011.60
2018-11-13T05:25:59.445Z,1011.68
2018-11-13T05:26:59.777Z,1011.68
2018-11-13T05:28:00.128Z,1011.78
2018-11-13T05:29:00.541Z,1011.76
2018-11-13T05:31:00.860Z,1011.80
2018-11-13T05:32:01.382Z,1011.86
2018-11-13T05:33:01.495Z,1011.83
2018-11-13T05:34:02.111Z,1011.84
2018-11-13T05:35:02.371Z,1011.81
2018-11-13T05:36:02.564Z,1011.86
2018-11-13T05:37:02.387Z,1011.89
2018-11-13T05:38:03.068Z,1011.85
2018-11-13T05:39:02.931Z,1011.90
2018-11-13T05:40:02.939Z,1011.90
2018-11-13T05:41:03.638Z,1011.92
2018-11-13T05:42:04.117Z,1011.95
2018-11-13T05:43:04.118Z,1011.94
2018-11-13T05:44:04.296Z,1011.97
2018-11-13T05:45:04.510Z,1012.00
2018-11-13T05:46:04.853Z,1012.00
2018-11-13T05:47:05.001Z,1011.92
2018-11-13T05:48:05.044Z,1011.93
2018-11-13T05:49:05.105Z,1011.91
2018-11-13T05:50:05.443Z,1011.95
2018-11-13T05:51:05.647Z,1011.97
2018-11-13T05:52:06.122Z,1011.96
2018-11-13T05:53:06.169Z,1012.00
2018-11-13T05:54:06.225Z,1011.94
2018-11-13T05:55:06.317Z,1011.93
2018-11-13T05:56:06.789Z,1011.89
2018-11-13T05:57:06.928Z,1011.85
2018-11-13T05:58:07.059Z,1011.97
2018-11-13T05:59:07.176Z,1012.00
2018-11-13T06:00:07.259Z,1012.03
2018-11-13T06:01:07.350Z,1012.06
2018-11-13T06:02:07.690Z,1012.01
2018-11-13T06:03:07.771Z,1012.05
2018-11-13T06:04:07.862Z,1012.12
2018-11-13T06:05:07.954Z,1012.02
2018-11-13T06:06:07.894Z,1012.09
2018-11-13T06:07:08.333Z,1012.08
2018-11-13T06:08:09.026Z,1012.12
2018-11-13T06:09:09.222Z,1012.09
2018-11-13T06:10:09.278Z,1012.27
2018-11-13T06:11:09.385Z,1012.28
2018-11-13T06:12:09.469Z,1012.25
2018-11-13T06:13:09.502Z,1012.26
2018-11-13T06:14:09.501Z,1012.21
2018-11-13T06:15:09.848Z,1012.18
2018-11-13T06:16:10.201Z,1012.23
2018-11-13T06:17:10.795Z,1012.23
2018-11-13T06:18:10.649Z,1012.19
2018-11-13T06:19:10.910Z,1012.23
2018-11-13T06:20:11.393Z,1012.15
2018-11-13T06:21:11.513Z,1012.18
2018-11-13T06:22:11.827Z,1012.19
2018-11-13T06:23:12.224Z,1012.21
2018-11-13T06:24:12.450Z,1012.27
2018-11-13T06:25:12.979Z,1012.27
2018-11-13T06:26:12.980Z,1012.18
2018-11-13T06:27:13.297Z,1012.14
2018-11-13T06:28:13.839Z,1012.22
2018-11-13T06:29:13.693Z,1012.22
2018-11-13T06:30:13.941Z,1012.19
2018-11-13T06:31:14.368Z,1012.32
2018-11-13T06:32:14.651Z,1012.31
2018-11-13T06:33:14.943Z,1012.30
2018-11-13T06:34:15.233Z,1012.28
2018-11-13T06:35:15.871Z,1012.32
2018-11-13T06:36:15.658Z,1012.32
2018-11-13T06:37:15.952Z,1012.42
2018-11-13T06:38:16.227Z,1012.40
2018-11-13T06:39:16.534Z,1012.51
2018-11-13T06:40:17.152Z,1012.49
2018-11-13T06:41:16.946Z,1012.50
2018-11-13T06:42:17.273Z,1012.41
2018-11-13T06:43:17.660Z,1012.44
2018-11-13T06:44:18.040Z,1012.45
2018-11-13T06:45:18.726Z,1012.54
2018-11-13T06:46:19.158Z,1012.59
2018-11-13T06:48:19.384Z,1012.70
2018-11-13T06:49:19.582Z,1012.77
2018-11-13T06:50:19.688Z,1012.67
2018-11-13T06:51:19.917Z,1012.71
2018-11-13T06:52:20.107Z,1012.75
2018-11-13T06:53:20.244Z,1012.69
2018-11-13T06:54:20.420Z,1012.70
2018-11-13T06:55:20.843Z,1012.82
2018-11-13T06:56:21.152Z,1012.82
2018-11-13T06:57:21.222Z,1012.78
2018-11-13T06:58:21.622Z,1012.88
2018-11-13T06:59:21.726Z,1012.80
2018-11-13T07:00:21.819Z,1012.88
2018-11-13T07:01:21.990Z,1012.90
2018-11-13T07:02:22.115Z,1012.82
2018-11-13T07:03:22.258Z,1012.88
2018-11-13T07:04:22.375Z,1012.83
2018-11-13T07:05:22.674Z,1012.83
2018-11-13T07:06:22.778Z,1012.89
2018-11-13T07:07:22.845Z,1012.89
2018-11-13T07:08:23.043Z,1012.89
2018-11-13T07:09:23.140Z,1012.88
2018-11-13T07:10:23.254Z,1012.96
2018-11-13T07:11:23.705Z,1013.09
2018-11-13T07:12:23.922Z,1013.06
2018-11-13T07:13:23.996Z,1013.09
2018-11-13T07:14:24.150Z,1013.14
2018-11-13T07:15:24.173Z,1013.08
2018-11-13T07:16:24.244Z,1013.20
2018-11-13T07:17:24.785Z,1013.31
2018-11-13T07:18:24.795Z,1013.35
2018-11-13T07:19:24.952Z,1013.38
2018-11-13T07:20:24.738Z,1013.48
2018-11-13T07:21:24.809Z,1013.44
2018-11-13T07:22:25.538Z,1013.44
2018-11-13T07:23:25.714Z,1013.43
2018-11-13T07:24:25.517Z,1013.56
2018-11-13T07:25:26.055Z,1013.49
2018-11-13T07:26:26.276Z,1013.44
2018-11-13T07:27:26.606Z,1013.46
2018-11-13T07:28:27.095Z,1013.51
2018-11-13T07:29:27.401Z,1013.48
2018-11-13T07:30:27.690Z,1013.41
2018-11-13T07:31:31.051Z,1013.49
2018-11-13T07:32:29.300Z,1013.43
2018-11-13T07:33:28.536Z,1013.42
2018-11-13T07:34:29.217Z,1013.41
2018-11-13T07:35:28.937Z,1013.34
2018-11-13T07:36:29.203Z,1013.46
2018-11-13T07:37:29.495Z,1013.46
2018-11-13T07:38:29.882Z,1013.42
2018-11-13T07:39:30.375Z,1013.46
2018-11-13T07:40:30.827Z,1013.53
2018-11-13T07:41:31.373Z,1013.43
2018-11-13T07:42:31.372Z,1013.50
2018-11-13T07:43:31.677Z,1013.59
2018-11-13T07:44:32.171Z,1013.53
2018-11-13T07:45:32.437Z,1013.59
2018-11-13T07:46:32.727Z,1013.54
2018-11-13T07:47:33.561Z,1013.43
2018-11-13T07:48:33.396Z,1013.42
2018-11-13T07:49:33.413Z,1013.40
2018-11-13T07:50:33.496Z,1013.50
2018-11-13T07:51:33.607Z,1013.46
2018-11-13T07:52:33.766Z,1013.54
2018-11-13T07:53:34.014Z,1013.67
2018-11-13T07:54:34.144Z,1013.75
2018-11-13T07:55:34.472Z,1013.88
2018-11-13T07:56:34.451Z,1013.95
2018-11-13T07:57:35.529Z,1014.05
2018-11-13T07:58:34.856Z,1014.21
2018-11-13T07:59:34.916Z,1014.20
2018-11-13T08:00:35.047Z,1014.12
2018-11-13T08:01:35.203Z,1014.09
2018-11-13T08:02:35.413Z,1014.05
2018-11-13T08:03:35.668Z,1014.04
2018-11-13T08:04:36.035Z,1014.15
2018-11-13T08:05:36.239Z,1014.02
2018-11-13T08:06:36.299Z,1014.04
2018-11-13T08:07:36.392Z,1014.06
2018-11-13T08:08:36.537Z,1014.06
2018-11-13T08:09:36.633Z,1014.09
2018-11-13T08:10:36.785Z,1014.14
2018-11-13T08:11:36.907Z,1014.15
2018-11-13T08:12:37.019Z,1014.14
2018-11-13T08:13:37.325Z,1014.15
2018-11-13T08:14:37.513Z,1014.11
2018-11-13T08:15:37.612Z,1014.09
2018-11-13T08:16:37.675Z,1014.25
2018-11-13T08:17:37.746Z,1014.32
2018-11-13T08:18:38.098Z,1014.37
2018-11-13T08:19:38.190Z,1014.32
2018-11-13T08:20:38.287Z,1014.36
2018-11-13T08:21:38.396Z,1014.27
2018-11-13T08:22:38.534Z,1014.26
2018-11-13T08:23:38.770Z,1014.16
2018-11-13T08:24:38.867Z,1014.24
2018-11-13T08:25:38.989Z,1014.21
2018-11-13T08:26:38.895Z,1014.19
2018-11-13T08:27:39.651Z,1014.29
2018-11-13T08:28:39.583Z,1014.41
2018-11-13T08:29:40.095Z,1014.54
2018-11-13T08:30:39.890Z,1014.55
2018-11-13T08:31:40.168Z,1014.69
2018-11-13T08:32:40.524Z,1014.69
2018-11-13T08:33:40.733Z,1014.73
2018-11-13T08:34:41.034Z,1014.66
2018-11-13T08:35:41.462Z,1014.70
2018-11-13T08:36:41.675Z,1014.75
2018-11-13T08:37:42.042Z,1014.77
2018-11-13T08:38:42.344Z,1014.76
2018-11-13T08:39:42.947Z,1014.77
2018-11-13T08:40:42.759Z,1014.72
2018-11-13T08:41:43.058Z,1014.72
2018-11-13T08:42:43.338Z,1014.72
2018-11-13T08:43:43.684Z,1014.74
2018-11-13T08:44:44.120Z,1014.77
2018-11-13T08:45:44.432Z,1014.59
2018-11-13T08:46:44.734Z,1014.56
2018-11-13T08:47:45.242Z,1014.55
2018-11-13T08:48:45.299Z,1014.58
2018-11-13T08:49:45.101Z,1014.60
2018-11-13T08:50:45.407Z,1014.57
2018-11-13T08:51:45.849Z,1014.66
2018-11-13T08:52:46.147Z,1014.77
2018-11-13T08:53:46.453Z,1014.82
2018-11-13T08:54:46.733Z,1014.82
2018-11-13T08:55:47.049Z,1014.78
2018-11-13T08:56:47.343Z,1014.80
2018-11-13T08:57:47.640Z,1014.89
2018-11-13T08:58:48.222Z,1014.93
2018-11-13T08:59:48.113Z,1014.94
2018-11-13T09:00:48.831Z,1014.91
2018-11-13T09:01:49.000Z,1014.98
2018-11-13T09:02:49.124Z,1014.94
2018-11-13T09:03:49.250Z,1014.94
2018-11-13T09:04:49.470Z,1014.97
2018-11-13T09:05:49.767Z,1014.92
2018-11-13T09:06:49.956Z,1014.92
2018-11-13T09:07:50.193Z,1014.91
2018-11-13T09:08:50.396Z,1014.92
2018-11-13T09:09:50.521Z,1015.03
2018-11-13T09:10:50.719Z,1014.91
2018-11-13T09:11:50.883Z,1014.95
2018-11-13T09:12:50.987Z,1014.96
2018-11-13T09:13:51.046Z,1014.99
2018-11-13T09:14:51.239Z,1015.02
2018-11-13T09:15:51.512Z,1015.17
2018-11-13T09:16:51.655Z,1015.16
2018-11-13T09:17:51.707Z,1015.16
2018-11-13T09:18:51.984Z,1015.17
2018-11-13T09:19:51.991Z,1015.11
2018-11-13T09:20:52.141Z,1015.20
2018-11-13T09:21:52.305Z,1015.27
2018-11-13T09:22:52.347Z,1015.25
2018-11-13T09:23:52.419Z,1015.29
2018-11-13T09:24:52.501Z,1015.33
2018-11-13T09:25:52.603Z,1015.33
2018-11-13T09:26:52.678Z,1015.36
2018-11-13T09:27:52.751Z,1015.36
2018-11-13T09:28:52.832Z,1015.32
2018-11-13T09:29:53.017Z,1015.42
2018-11-13T09:30:53.535Z,1015.42
2018-11-13T09:31:53.319Z,1015.43
2018-11-13T09:32:53.320Z,1015.45
2018-11-13T09:33:53.351Z,1015.44
2018-11-13T09:34:53.712Z,1015.44
2018-11-13T09:35:53.809Z,1015.46
2018-11-13T09:36:53.877Z,1015.55
2018-11-13T09:37:53.873Z,1015.51
2018-11-13T09:38:54.368Z,1015.54
2018-11-13T09:39:54.651Z,1015.57
2018-11-13T09:40:54.948Z,1015.55
2018-11-13T09:41:55.243Z,1015.55
2018-11-13T09:42:55.517Z,1015.55
2018-11-13T09:43:55.864Z,1015.54
2018-11-13T09:44:56.360Z,1015.55
2018-11-13T09:45:56.606Z,1015.55
2018-11-13T09:46:56.808Z,1015.54
2018-11-13T09:47:57.302Z,1015.57
2018-11-13T09:48:57.593Z,1015.56
2018-11-13T09:49:58.078Z,1015.55
2018-11-13T09:50:58.362Z,1015.64
2018-11-13T09:51:58.661Z,1015.55
2018-11-13T09:52:58.956Z,1015.64
2018-11-13T09:53:59.309Z,1015.63
2018-11-13T09:54:59.594Z,1015.62
2018-11-13T09:55:59.859Z,1015.65
2018-11-13T09:57:00.139Z,1015.62
2018-11-13T09:58:00.449Z,1015.61
2018-11-13T09:59:00.887Z,1015.66
2018-11-13T10:00:01.227Z,1015.65
2018-11-13T10:01:01.643Z,1015.63
2018-11-13T10:02:02.160Z,1015.64
2018-11-13T10:03:02.805Z,1015.62
2018-11-13T10:04:03.043Z,1015.66
2018-11-13T10:05:03.433Z,1015.64
2018-11-13T10:06:02.800Z,1015.73
2018-11-13T10:07:03.373Z,1015.70
2018-11-13T10:08:03.503Z,1015.67
2018-11-13T10:09:03.655Z,1015.65
2018-11-13T10:10:03.991Z,1015.68
2018-11-13T10:12:04.212Z,1015.72
2018-11-13T10:13:04.349Z,1015.68
2018-11-13T10:14:04.527Z,1015.61
2018-11-13T10:15:04.686Z,1015.58
2018-11-13T10:16:04.789Z,1015.59
2018-11-13T10:17:04.980Z,1015.61
2018-11-13T10:18:05.199Z,1015.66
2018-11-13T10:19:05.086Z,1015.65
2018-11-13T10:20:05.676Z,1015.66
2018-11-13T10:21:06.019Z,1015.66
2018-11-13T10:22:06.222Z,1015.73
2018-11-13T10:23:06.366Z,1015.74
2018-11-13T10:24:06.546Z,1015.80
2018-11-13T10:25:06.934Z,1015.75
2018-11-13T10:26:07.271Z,1015.77
2018-11-13T10:27:07.461Z,1015.74
2018-11-13T10:28:07.511Z,1015.73
2018-11-13T10:29:07.559Z,1015.74
2018-11-13T10:30:07.641Z,1015.80
2018-11-13T10:31:07.731Z,1015.79
2018-11-13T10:32:07.835Z,1015.79
2018-11-13T10:33:07.628Z,1015.79
2018-11-13T10:34:08.235Z,1015.74
2018-11-13T10:35:08.317Z,1015.74
2018-11-13T10:36:08.417Z,1015.74
2018-11-13T10:37:09.037Z,1015.73
2018-11-13T10:38:08.975Z,1015.64
2018-11-13T10:39:09.616Z,1015.64
2018-11-13T10:40:09.754Z,1015.64
2018-11-13T10:41:10.285Z,1015.63
2018-11-13T10:42:10.589Z,1015.66
2018-11-13T10:43:10.379Z,1015.63
2018-11-13T10:44:10.869Z,1015.64
2018-11-13T10:45:11.196Z,1015.64
2018-11-13T10:46:11.656Z,1015.64
2018-11-13T10:47:12.009Z,1015.63
2018-11-13T10:48:12.488Z,1015.63
2018-11-13T10:49:12.912Z,1015.62
2018-11-13T10:50:13.310Z,1015.56
2018-11-13T10:51:13.484Z,1015.59
2018-11-13T10:52:13.761Z,1015.57
2018-11-13T10:53:14.034Z,1015.56
2018-11-13T10:54:14.339Z,1015.40
2018-11-13T10:55:15.067Z,1015.42
2018-11-13T10:56:14.852Z,1015.52
2018-11-13T10:57:15.331Z,1015.48
2018-11-13T10:58:15.627Z,1015.46
2018-11-13T10:59:15.979Z,1015.46
2018-11-13T11:00:16.591Z,1015.40
2018-11-13T11:01:16.686Z,1015.47
2018-11-13T11:02:16.618Z,1015.45
2018-11-13T11:03:17.231Z,1015.42
2018-11-13T11:04:17.152Z,1015.41
2018-11-13T11:05:17.573Z,1015.44
2018-11-13T11:07:18.076Z,1015.43
2018-11-13T11:08:18.791Z,1015.43
2018-11-13T11:10:18.914Z,1015.43
2018-11-13T11:11:19.081Z,1015.43
2018-11-13T11:12:19.209Z,1015.36
2018-11-13T11:13:19.766Z,1015.35
2018-11-13T11:14:19.587Z,1015.38
2018-11-13T11:15:19.735Z,1015.47
2018-11-13T11:16:19.879Z,1015.45
2018-11-13T11:17:20.299Z,1015.50
2018-11-13T11:18:20.439Z,1015.51
2018-11-13T11:19:20.697Z,1015.51
2018-11-13T11:20:20.767Z,1015.40
2018-11-13T11:21:20.858Z,1015.41
2018-11-13T11:22:21.013Z,1015.43
2018-11-13T11:23:21.165Z,1015.45
2018-11-13T11:24:21.305Z,1015.59
2018-11-13T11:25:21.430Z,1015.56
2018-11-13T11:26:21.515Z,1015.57
2018-11-13T11:27:21.495Z,1015.51
2018-11-13T11:28:21.602Z,1015.44
2018-11-13T11:29:21.708Z,1015.49
2018-11-13T11:30:21.810Z,1015.47
2018-11-13T11:31:22.004Z,1015.41
2018-11-13T11:32:22.108Z,1015.40
2018-11-13T11:33:22.210Z,1015.39
2018-11-13T11:34:22.315Z,1015.38
2018-11-13T11:35:22.430Z,1015.43
2018-11-13T11:36:22.616Z,1015.41
2018-11-13T11:37:22.716Z,1015.39
2018-11-13T11:38:22.825Z,1015.37
2018-11-13T11:39:22.894Z,1015.35
2018-11-13T11:40:22.989Z,1015.28
2018-11-13T11:41:23.080Z,1015.30
2018-11-13T11:42:23.303Z,1015.34
2018-11-13T11:43:23.429Z,1015.33
2018-11-13T11:44:23.645Z,1015.34
2018-11-13T11:45:23.754Z,1015.33
2018-11-13T11:46:23.848Z,1015.38
2018-11-13T11:47:23.922Z,1015.29
2018-11-13T11:48:23.950Z,1015.29
2018-11-13T11:49:23.917Z,1015.29
2018-11-13T11:50:24.206Z,1015.35
2018-11-13T11:51:24.573Z,1015.36
2018-11-13T11:52:24.900Z,1015.38
2018-11-13T11:53:25.445Z,1015.37
2018-11-13T11:54:25.261Z,1015.41
2018-11-13T11:55:25.596Z,1015.43
2018-11-13T11:56:26.038Z,1015.48
2018-11-13T11:57:26.352Z,1015.48
2018-11-13T11:58:26.672Z,1015.49
2018-11-13T11:59:27.042Z,1015.54
2018-11-13T12:00:27.358Z,1015.41
2018-11-13T12:01:27.446Z,1015.54
2018-11-13T12:02:27.763Z,1015.52
2018-11-13T12:03:28.062Z,1015.49
2018-11-13T12:04:28.348Z,1015.61
2018-11-13T12:05:28.628Z,1015.58
2018-11-13T12:06:28.970Z,1015.56
2018-11-13T12:07:29.284Z,1015.57
2018-11-13T12:08:29.576Z,1015.61
2018-11-13T12:09:29.865Z,1015.58
2018-11-13T12:10:30.183Z,1015.60
2018-11-13T12:11:30.601Z,1015.60
2018-11-13T12:12:30.956Z,1015.58
2018-11-13T12:13:31.296Z,1015.58
2018-11-13T12:14:31.599Z,1015.64
2018-11-13T12:15:31.957Z,1015.65
2018-11-13T12:16:32.262Z,1015.64
2018-11-13T12:17:32.689Z,1015.58
2018-11-13T12:18:33.203Z,1015.60